Time;durP1;ratioP1;P1;durP2;ratioP2;P2;SDS_P1;SDS_P2;PMS_P1;PMS_P2;Temp;Humidity;BMP_temperature;BMP_pressure;BME280_temperature;BME280_humidity;BME280_pressure;Samples;Min_cycle;Max_cycle;Signal;HPM_P1;HPM_P2
2021/07/16 00:00:08;;;;;;;1.90;1.80;;;16.40;99.90;;;;;;4161705;28;20531;-80
2021/07/16 00:02:09;;;;;;;4.63;4.22;;;16.40;99.90;;;;;;4166618;28;20030;-79
2021/07/16 00:04:11;;;;;;;1.83;1.73;;;16.40;99.90;;;;;;4163998;28;20036;-79
2021/07/16 00:06:11;;;;;;;2.08;1.98;;;16.30;99.90;;;;;;4168201;28;20076;-80
2021/07/16 00:08:12;;;;;;;2.42;2.33;;;16.30;99.90;;;;;;4164574;28;20464;-79
2021/07/16 00:10:19;;;;;;;3.72;3.42;;;16.30;99.90;;;;;;4154402;28;20026;-80
2021/07/16 00:12:20;;;;;;;1.40;1.40;;;16.30;99.90;;;;;;4157174;28;20021;-79
2021/07/16 00:14:21;;;;;;;1.40;1.40;;;16.30;99.90;;;;;;4174453;28;20061;-80
2021/07/16 00:16:22;;;;;;;1.50;1.50;;;16.20;99.90;;;;;;4165512;28;20060;-79
2021/07/16 00:18:22;;;;;;;1.92;1.83;;;16.20;99.90;;;;;;4165981;28;20056;-79
2021/07/16 00:20:23;;;;;;;1.52;1.52;;;16.20;99.90;;;;;;4164829;28;20372;-80
2021/07/16 00:22:24;;;;;;;1.95;1.85;;;16.20;99.90;;;;;;4165854;28;20029;-79
2021/07/16 00:24:24;;;;;;;8.35;3.38;;;16.20;99.90;;;;;;4166121;28;20037;-80
2021/07/16 00:26:25;;;;;;;2.03;1.77;;;16.30;99.90;;;;;;4165591;28;20033;-79
2021/07/16 00:28:26;;;;;;;2.40;2.30;;;16.30;99.90;;;;;;4165889;28;20118;-80
2021/07/16 00:30:27;;;;;;;2.47;2.28;;;16.30;99.90;;;;;;4173811;28;20029;-80
2021/07/16 00:32:28;;;;;;;3.22;2.47;;;16.30;99.90;;;;;;4161182;28;20025;-80
2021/07/16 00:34:29;;;;;;;3.35;3.15;;;16.30;99.90;;;;;;4165615;28;20025;-80
2021/07/16 00:36:29;;;;;;;1.80;1.70;;;16.40;99.90;;;;;;4166032;28;20045;-80
2021/07/16 00:38:30;;;;;;;1.67;1.63;;;16.30;99.90;;;;;;4165736;28;20029;-80
2021/07/16 00:40:31;;;;;;;1.73;1.63;;;16.30;99.90;;;;;;4169192;28;20033;-80
2021/07/16 00:42:31;;;;;;;2.00;1.77;;;16.30;99.90;;;;;;4165655;28;20498;-80
2021/07/16 00:44:34;;;;;;;1.05;1.05;;;16.30;99.90;;;;;;4165811;28;20033;-79
2021/07/16 00:46:34;;;;;;;1.50;1.50;;;16.30;99.90;;;;;;4166702;28;20037;-80
2021/07/16 00:48:35;;;;;;;1.88;1.77;;;16.30;99.90;;;;;;4165696;28;20384;-79
2021/07/16 00:50:37;;;;;;;1.90;1.80;;;16.30;99.90;;;;;;4165717;28;20500;-80
2021/07/16 00:52:40;;;;;;;2.85;2.65;;;16.20;99.90;;;;;;4165911;28;20041;-80
2021/07/16 00:54:41;;;;;;;1.75;1.67;;;16.20;99.90;;;;;;4165433;28;20022;-80
2021/07/16 00:56:41;;;;;;;2.47;2.38;;;16.10;99.90;;;;;;4168814;28;20037;-80
2021/07/16 00:58:42;;;;;;;1.77;1.73;;;16.10;99.90;;;;;;4169993;28;20037;-80
2021/07/16 01:00:44;;;;;;;1.77;1.67;;;16.20;99.90;;;;;;4165478;28;20132;-80
2021/07/16 01:02:45;;;;;;;2.08;1.73;;;16.20;99.90;;;;;;4158344;28;20034;-80
2021/07/16 01:04:46;;;;;;;3.60;2.88;;;16.20;99.90;;;;;;4163826;28;20088;-81
2021/07/16 01:06:46;;;;;;;2.55;2.38;;;16.20;99.90;;;;;;4173683;28;20041;-81
2021/07/16 01:08:47;;;;;;;3.58;2.30;;;16.20;99.90;;;;;;4165847;28;20109;-80
2021/07/16 01:10:48;;;;;;;2.53;2.40;;;16.20;99.90;;;;;;4165375;28;20526;-80
2021/07/16 01:12:53;;;;;;;2.25;2.15;;;16.40;99.90;;;;;;4163958;28;20064;-81
2021/07/16 01:14:54;;;;;;;2.45;2.25;;;16.40;99.90;;;;;;4164214;28;20141;-81
2021/07/16 01:16:55;;;;;;;2.17;2.08;;;16.40;99.90;;;;;;4163607;28;20045;-81
2021/07/16 01:18:56;;;;;;;1.98;1.85;;;16.40;99.90;;;;;;4163267;28;20417;-81
2021/07/16 01:20:57;;;;;;;3.13;2.83;;;16.40;99.90;;;;;;4163449;28;20042;-81
2021/07/16 01:23:00;;;;;;;15.40;3.47;;;16.40;99.90;;;;;;4164957;28;20040;-80
2021/07/16 01:25:04;;;;;;;2.35;2.25;;;16.50;99.90;;;;;;4167571;28;20033;-81
2021/07/16 01:27:05;;;;;;;2.47;2.35;;;16.40;99.90;;;;;;4158807;28;20042;-81
2021/07/16 01:29:05;;;;;;;2.50;2.30;;;16.30;99.90;;;;;;4168649;28;20092;-81
2021/07/16 01:31:07;;;;;;;3.47;3.30;;;16.30;99.90;;;;;;4163682;28;20095;-81
2021/07/16 01:33:08;;;;;;;1.88;1.75;;;16.40;99.90;;;;;;4163710;28;20520;-81
2021/07/16 01:35:10;;;;;;;3.53;2.50;;;16.30;99.90;;;;;;4183686;28;20036;-81
2021/07/16 01:37:11;;;;;;;2.15;2.05;;;16.30;99.90;;;;;;4163689;28;20378;-81
2021/07/16 01:39:11;;;;;;;4.00;2.63;;;16.30;99.90;;;;;;4164716;28;20481;-81
2021/07/16 01:41:12;;;;;;;3.25;2.95;;;16.30;99.90;;;;;;4168717;28;20037;-81
2021/07/16 01:43:13;;;;;;;1.33;1.33;;;16.30;99.90;;;;;;4165046;28;20029;-81
2021/07/16 01:45:20;;;;;;;1.52;1.42;;;16.20;99.90;;;;;;4162865;28;20041;-81
2021/07/16 01:47:20;;;;;;;2.22;2.13;;;16.20;99.90;;;;;;4164953;28;20563;-81
2021/07/16 01:49:21;;;;;;;5.90;3.83;;;16.30;99.90;;;;;;4165429;28;20094;-80
2021/07/16 01:51:22;;;;;;;1.85;1.75;;;16.30;99.90;;;;;;4163041;28;20468;-80
2021/07/16 01:53:22;;;;;;;2.38;2.28;;;16.30;99.90;;;;;;4166928;28;20505;-81
2021/07/16 01:55:24;;;;;;;8.70;4.05;;;16.20;99.90;;;;;;4164584;28;20040;-80
2021/07/16 01:57:24;;;;;;;3.20;2.75;;;16.20;99.90;;;;;;4167934;28;20109;-80
2021/07/16 01:59:25;;;;;;;3.58;3.25;;;16.20;99.90;;;;;;4168699;28;20373;-80
2021/07/16 02:01:28;;;;;;;3.78;2.95;;;16.20;99.90;;;;;;4164562;28;20025;-80
2021/07/16 02:03:28;;;;;;;3.72;2.45;;;16.10;99.90;;;;;;4162990;28;20096;-80
2021/07/16 02:05:30;;;;;;;2.67;2.58;;;16.10;99.90;;;;;;4162882;28;20061;-80
2021/07/16 02:07:30;;;;;;;2.42;2.33;;;16.10;99.90;;;;;;4172264;28;20038;-80
2021/07/16 02:09:31;;;;;;;10.40;2.95;;;16.10;99.90;;;;;;4164464;28;20111;-81
2021/07/16 02:11:32;;;;;;;2.20;2.10;;;16.10;99.90;;;;;;4164453;28;20158;-80
2021/07/16 02:13:33;;;;;;;1.67;1.60;;;16.10;99.90;;;;;;4164404;28;20061;-77
2021/07/16 02:15:38;;;;;;;1.40;1.40;;;16.00;99.90;;;;;;4162403;28;20030;-78
2021/07/16 02:17:39;;;;;;;2.45;2.35;;;16.10;99.90;;;;;;4163950;28;20041;-81
2021/07/16 02:19:40;;;;;;;2.10;2.00;;;16.00;99.90;;;;;;4163092;28;20029;-81
2021/07/16 02:21:40;;;;;;;3.25;1.52;;;16.10;99.90;;;;;;4161350;28;20109;-78
2021/07/16 02:23:41;;;;;;;8.80;3.33;;;16.00;99.90;;;;;;4164409;28;20437;-79
2021/07/16 02:25:42;;;;;;;2.20;2.08;;;15.90;99.90;;;;;;4164163;28;20060;-80
2021/07/16 02:27:47;;;;;;;2.08;1.98;;;15.90;99.90;;;;;;4164140;28;20029;-80
2021/07/16 02:29:50;;;;;;;3.03;2.55;;;15.90;99.90;;;;;;4162998;28;20033;-79
2021/07/16 02:31:51;;;;;;;2.30;2.20;;;15.90;99.90;;;;;;4163187;28;20037;-79
2021/07/16 02:33:52;;;;;;;2.45;2.25;;;15.80;99.90;;;;;;4163165;28;20052;-79
2021/07/16 02:35:52;;;;;;;1.88;1.77;;;15.80;99.90;;;;;;4161146;28;20092;-79
2021/07/16 02:37:53;;;;;;;1.30;1.30;;;15.80;99.90;;;;;;4162670;28;20563;-79
2021/07/16 02:39:54;;;;;;;5.03;4.53;;;15.80;99.90;;;;;;4161207;28;20037;-80
2021/07/16 02:41:54;;;;;;;1.23;1.23;;;15.80;99.90;;;;;;4163604;28;20457;-79
2021/07/16 02:43:55;;;;;;;1.45;1.45;;;15.80;99.90;;;;;;4162971;28;20053;-79
2021/07/16 02:45:55;;;;;;;1.58;1.55;;;15.80;99.90;;;;;;4162327;28;20116;-79
2021/07/16 02:47:56;;;;;;;2.08;1.98;;;15.80;99.90;;;;;;4182280;28;20399;-79
2021/07/16 02:49:57;;;;;;;1.33;1.33;;;15.80;99.90;;;;;;4163914;28;20440;-80
2021/07/16 02:51:57;;;;;;;1.48;1.48;;;15.70;99.90;;;;;;4159296;28;20025;-79
2021/07/16 02:53:58;;;;;;;4.88;3.40;;;15.70;99.90;;;;;;4162713;28;20092;-80
2021/07/16 02:55:59;;;;;;;1.95;1.85;;;15.70;99.90;;;;;;4162011;28;20040;-79
2021/07/16 02:57:59;;;;;;;1.65;1.55;;;15.70;99.90;;;;;;4162349;28;20041;-80
2021/07/16 03:00:00;;;;;;;2.38;2.22;;;15.70;99.90;;;;;;4162775;28;20409;-80
2021/07/16 03:02:04;;;;;;;3.67;1.77;;;15.70;99.90;;;;;;4163339;28;20057;-80
2021/07/16 03:04:05;;;;;;;1.20;1.20;;;15.70;99.90;;;;;;4163268;28;20389;-78
2021/07/16 03:06:06;;;;;;;2.95;2.75;;;15.70;99.90;;;;;;4163382;28;20078;-81
2021/07/16 03:08:08;;;;;;;2.22;2.13;;;15.60;99.90;;;;;;4164103;28;20424;-77
2021/07/16 03:10:13;;;;;;;4.78;3.30;;;15.60;99.90;;;;;;4162332;28;20022;-80
2021/07/16 03:12:14;;;;;;;6.93;3.65;;;15.60;99.90;;;;;;4159610;28;20510;-80
2021/07/16 03:14:14;;;;;;;2.40;2.20;;;15.50;99.90;;;;;;4162180;28;20115;-77
2021/07/16 03:16:15;;;;;;;1.95;1.85;;;15.50;99.90;;;;;;4177250;28;20057;-78
2021/07/16 03:18:16;;;;;;;8.20;3.65;;;15.50;99.90;;;;;;4166524;28;20422;-78
2021/07/16 03:20:37;;;;;;;1.85;1.75;;;15.60;99.90;;;;;;4161945;28;20108;-77
2021/07/16 03:22:41;;;;;;;1.13;1.13;;;15.60;99.90;;;;;;4173324;28;20704;-80
2021/07/16 03:24:41;;;;;;;4.60;2.22;;;15.60;99.90;;;;;;4163589;28;20052;-81
2021/07/16 03:26:42;;;;;;;2.20;2.10;;;15.60;99.90;;;;;;4165525;28;20030;-81
2021/07/16 03:28:43;;;;;;;5.40;2.20;;;15.70;99.90;;;;;;4171573;28;20135;-80
2021/07/16 03:30:44;;;;;;;1.90;1.80;;;15.70;99.90;;;;;;4188273;28;20054;-78
2021/07/16 03:32:45;;;;;;;6.50;3.70;;;15.60;99.90;;;;;;4172291;28;20183;-80
2021/07/16 03:34:45;;;;;;;5.80;2.40;;;15.60;99.90;;;;;;4153459;28;20029;-81
2021/07/16 03:36:46;;;;;;;2.63;2.47;;;15.60;99.90;;;;;;4162994;28;20041;-81
2021/07/16 03:38:48;;;;;;;2.15;2.03;;;15.50;99.90;;;;;;4162029;28;20084;-78
2021/07/16 03:40:53;;;;;;;9.20;2.58;;;15.60;99.90;;;;;;4171745;28;20108;-80
2021/07/16 03:42:55;;;;;;;3.20;2.88;;;15.60;99.90;;;;;;4165649;28;20064;-78
2021/07/16 03:44:56;;;;;;;1.95;1.85;;;15.60;99.90;;;;;;4166098;28;20036;-80
2021/07/16 03:46:58;;;;;;;2.38;2.28;;;15.50;99.90;;;;;;4165878;28;20038;-81
2021/07/16 03:49:00;;;;;;;7.00;2.50;;;15.60;99.90;;;;;;4166559;28;20479;-79
2021/07/16 03:51:01;;;;;;;2.75;2.55;;;15.60;99.90;;;;;;4170309;28;20040;-78
2021/07/16 03:53:02;;;;;;;3.95;3.58;;;15.50;99.90;;;;;;4179542;28;20036;-78
2021/07/16 03:55:06;;;;;;;3.63;3.20;;;15.50;99.90;;;;;;4189274;28;20524;-80
2021/07/16 03:57:07;;;;;;;5.05;4.03;;;15.60;99.90;;;;;;4166009;28;20040;-78
2021/07/16 03:59:08;;;;;;;2.78;1.85;;;15.60;99.90;;;;;;4159701;28;20042;-79
2021/07/16 04:01:08;;;;;;;1.10;1.10;;;15.60;99.90;;;;;;4155294;28;20064;-80
2021/07/16 04:03:09;;;;;;;5.50;2.78;;;15.60;99.90;;;;;;4159321;28;20473;-78
2021/07/16 04:05:10;;;;;;;18.20;3.00;;;15.50;99.90;;;;;;4158372;28;20080;-78
2021/07/16 04:07:17;;;;;;;9.18;4.10;;;15.60;99.90;;;;;;4166369;28;20104;-78
2021/07/16 04:09:26;;;;;;;2.00;1.77;;;15.50;99.90;;;;;;4164219;28;20026;-78
2021/07/16 04:11:27;;;;;;;1.65;1.55;;;15.60;99.90;;;;;;4158294;28;20061;-78
2021/07/16 04:13:28;;;;;;;1.80;1.70;;;15.60;99.90;;;;;;4170431;28;20395;-81
2021/07/16 04:15:29;;;;;;;1.45;1.45;;;15.50;99.90;;;;;;4168851;28;20030;-79
2021/07/16 04:17:32;;;;;;;1.38;1.38;;;15.50;99.90;;;;;;4153827;28;20030;-81
2021/07/16 04:19:33;;;;;;;1.83;1.73;;;15.50;99.90;;;;;;4170666;28;20481;-80
2021/07/16 04:21:33;;;;;;;1.92;1.83;;;15.50;99.90;;;;;;4160009;28;20053;-78
2021/07/16 04:23:34;;;;;;;1.70;1.60;;;15.50;99.90;;;;;;4162652;28;20029;-80
2021/07/16 04:25:34;;;;;;;1.65;1.63;;;15.50;99.90;;;;;;4165776;28;20477;-77
2021/07/16 04:27:36;;;;;;;1.90;1.80;;;15.50;99.90;;;;;;4168423;28;20116;-79
2021/07/16 04:29:38;;;;;;;4.50;4.07;;;15.50;99.90;;;;;;4164864;28;20117;-77
2021/07/16 04:31:39;;;;;;;3.05;2.38;;;15.50;99.90;;;;;;4166148;28;20573;-79
2021/07/16 04:33:39;;;;;;;2.00;1.83;;;15.50;99.90;;;;;;4168618;28;20067;-78
2021/07/16 04:35:40;;;;;;;4.10;3.80;;;15.60;99.90;;;;;;4159663;28;20034;-78
2021/07/16 04:37:42;;;;;;;1.67;1.65;;;15.60;99.90;;;;;;4166070;28;20036;-79
2021/07/16 04:39:43;;;;;;;1.88;1.40;;;15.60;99.90;;;;;;4162730;28;20045;-79
2021/07/16 04:41:43;;;;;;;21.45;4.95;;;15.70;99.90;;;;;;4169358;28;20037;-79
2021/07/16 04:43:44;;;;;;;2.10;2.00;;;15.70;99.90;;;;;;4169549;28;20396;-78
2021/07/16 04:45:44;;;;;;;3.00;2.80;;;15.90;99.90;;;;;;4204289;28;20502;-79
2021/07/16 04:47:45;;;;;;;3.25;2.00;;;16.00;99.90;;;;;;4167273;28;20029;-78
2021/07/16 04:49:46;;;;;;;1.95;1.85;;;16.10;99.90;;;;;;4167549;28;20432;-78
2021/07/16 04:51:47;;;;;;;2.17;2.08;;;16.20;99.90;;;;;;4174191;28;20029;-78
2021/07/16 04:53:51;;;;;;;1.95;1.85;;;16.30;99.90;;;;;;4170374;28;20377;-78
2021/07/16 04:55:52;;;;;;;1.42;1.42;;;16.40;99.90;;;;;;4189973;28;20029;-80
2021/07/16 04:57:52;;;;;;;3.47;3.22;;;16.60;99.90;;;;;;4173417;28;20033;-79
2021/07/16 04:59:53;;;;;;;1.40;1.40;;;16.70;99.90;;;;;;4168174;28;20041;-79
2021/07/16 05:01:53;;;;;;;3.83;3.53;;;16.80;99.90;;;;;;4173488;28;20448;-79
2021/07/16 05:03:54;;;;;;;1.30;1.30;;;16.90;99.90;;;;;;4191307;28;20045;-78
2021/07/16 05:05:55;;;;;;;2.05;1.95;;;17.00;99.90;;;;;;4168042;28;20392;-78
2021/07/16 05:07:56;;;;;;;2.53;2.33;;;17.10;99.90;;;;;;4177464;28;20072;-78
2021/07/16 05:09:56;;;;;;;2.92;2.47;;;17.10;99.90;;;;;;4169074;28;20496;-78
2021/07/16 05:11:57;;;;;;;15.73;4.35;;;17.20;99.90;;;;;;4168506;28;20034;-78
2021/07/16 05:13:58;;;;;;;1.73;1.70;;;17.20;99.90;;;;;;4165944;28;20369;-78
2021/07/16 05:15:59;;;;;;;6.03;2.13;;;17.30;99.90;;;;;;4177087;28;20036;-78
2021/07/16 05:18:00;;;;;;;10.45;2.75;;;17.30;99.90;;;;;;4178721;28;20655;-78
2021/07/16 05:20:01;;;;;;;1.30;1.30;;;17.40;99.90;;;;;;4175733;28;20037;-79
2021/07/16 05:22:04;;;;;;;9.48;2.78;;;17.40;99.90;;;;;;4174187;28;20060;-78
2021/07/16 05:24:04;;;;;;;1.50;1.50;;;17.40;99.90;;;;;;4176202;28;20026;-78
2021/07/16 05:26:05;;;;;;;2.45;2.35;;;17.40;99.90;;;;;;4173704;28;20021;-78
2021/07/16 05:28:06;;;;;;;1.48;1.42;;;17.20;99.90;;;;;;4168162;28;20044;-78
2021/07/16 05:30:07;;;;;;;6.18;1.60;;;17.10;99.90;;;;;;4167689;28;20112;-78
2021/07/16 05:32:08;;;;;;;11.10;3.25;;;17.00;99.90;;;;;;4175252;28;20025;-79
2021/07/16 05:34:09;;;;;;;2.33;2.13;;;17.00;99.90;;;;;;4171375;28;20552;-78
2021/07/16 05:36:10;;;;;;;9.77;4.63;;;16.90;99.90;;;;;;4164401;28;20402;-77
2021/07/16 05:38:11;;;;;;;3.30;1.98;;;16.90;99.90;;;;;;4176849;28;20018;-80
2021/07/16 05:40:13;;;;;;;6.25;1.80;;;16.90;99.90;;;;;;4177119;28;20104;-80
2021/07/16 05:42:13;;;;;;;1.98;1.88;;;16.90;99.90;;;;;;4172467;28;20579;-80
2021/07/16 05:44:14;;;;;;;2.70;2.50;;;16.90;99.90;;;;;;4192588;28;20033;-79
2021/07/16 05:46:14;;;;;;;3.10;2.42;;;16.80;99.90;;;;;;4174740;28;20121;-80
2021/07/16 05:48:15;;;;;;;1.63;1.52;;;16.80;99.90;;;;;;4169509;28;20055;-79
2021/07/16 05:50:16;;;;;;;4.53;2.42;;;16.90;99.90;;;;;;4188413;28;20389;-81
2021/07/16 05:52:17;;;;;;;5.25;3.22;;;16.90;99.90;;;;;;4173538;28;20108;-81
2021/07/16 05:54:17;;;;;;;2.60;1.95;;;17.10;99.90;;;;;;4167863;28;20357;-80
2021/07/16 05:56:18;;;;;;;1.17;1.17;;;17.30;99.90;;;;;;4164193;28;20108;-76
2021/07/16 05:58:19;;;;;;;2.78;2.17;;;17.40;99.90;;;;;;4187696;28;20028;-79
2021/07/16 06:00:19;;;;;;;1.80;1.70;;;17.60;99.90;;;;;;4177727;28;20041;-80
2021/07/16 06:02:20;;;;;;;3.20;1.38;;;17.70;99.90;;;;;;4189807;28;20037;-80
2021/07/16 06:04:20;;;;;;;2.90;2.35;;;17.70;99.90;;;;;;4167481;28;24432;-80
2021/07/16 06:06:21;;;;;;;1.15;1.15;;;17.80;99.90;;;;;;4159156;28;20048;-80
2021/07/16 06:08:22;;;;;;;2.35;2.15;;;17.80;99.90;;;;;;4171849;28;20039;-78
2021/07/16 06:10:22;;;;;;;1.10;1.10;;;17.90;99.90;;;;;;4153285;28;20026;-78
2021/07/16 06:12:23;;;;;;;1.20;1.20;;;18.00;99.90;;;;;;4158756;28;20369;-77
2021/07/16 06:14:24;;;;;;;6.88;3.17;;;18.20;99.90;;;;;;4175776;28;20484;-80
2021/07/16 06:16:24;;;;;;;22.15;8.45;;;18.40;99.90;;;;;;4171059;28;20397;-80
2021/07/16 06:18:25;;;;;;;24.50;8.88;;;18.50;99.90;;;;;;4174778;28;20031;-80
2021/07/16 06:20:26;;;;;;;26.02;9.73;;;18.50;99.90;;;;;;4169909;28;20022;-79
2021/07/16 06:22:26;;;;;;;24.10;7.78;;;18.40;99.90;;;;;;4195270;28;20102;-78
2021/07/16 06:24:28;;;;;;;30.27;8.88;;;18.40;99.90;;;;;;4174848;28;20025;-80
2021/07/16 06:26:31;;;;;;;28.83;8.93;;;18.40;99.90;;;;;;4169943;28;20033;-77
2021/07/16 06:28:31;;;;;;;19.08;8.23;;;18.30;99.90;;;;;;4161240;28;20454;-80
2021/07/16 06:30:32;;;;;;;26.20;9.13;;;18.20;99.90;;;;;;4160173;28;20026;-76
2021/07/16 06:32:33;;;;;;;25.38;8.32;;;18.20;99.90;;;;;;4163879;28;20033;-77
2021/07/16 06:34:35;;;;;;;21.10;7.55;;;18.10;99.90;;;;;;4160824;28;20075;-77
2021/07/16 06:36:35;;;;;;;22.27;8.52;;;18.00;99.90;;;;;;4161591;28;20032;-80
2021/07/16 06:38:36;;;;;;;21.50;8.45;;;18.00;99.90;;;;;;4168001;28;20056;-78
2021/07/16 06:40:37;;;;;;;26.15;8.93;;;18.00;99.90;;;;;;4192175;28;20028;-80
2021/07/16 06:42:37;;;;;;;27.42;7.55;;;17.90;99.90;;;;;;4177301;28;20088;-80
2021/07/16 06:44:38;;;;;;;25.83;9.02;;;18.00;99.90;;;;;;4175205;28;20080;-80
2021/07/16 06:46:39;;;;;;;23.77;8.68;;;18.00;99.90;;;;;;4175174;28;20111;-80
2021/07/16 06:48:43;;;;;;;22.80;8.15;;;17.90;99.90;;;;;;4166964;28;20021;-80
2021/07/16 06:50:43;;;;;;;26.23;10.20;;;17.90;99.90;;;;;;4169851;28;20055;-80
2021/07/16 06:52:44;;;;;;;27.63;8.73;;;17.90;99.90;;;;;;4163370;28;20108;-80
2021/07/16 06:54:45;;;;;;;28.27;8.73;;;17.90;99.90;;;;;;4165647;28;20045;-80
2021/07/16 06:56:45;;;;;;;19.55;7.70;;;18.00;99.90;;;;;;4165849;28;20112;-80
2021/07/16 06:58:46;;;;;;;21.02;7.57;;;18.10;99.90;;;;;;4161738;28;20405;-77
2021/07/16 07:00:48;;;;;;;19.08;7.68;;;18.20;99.90;;;;;;4155748;28;20091;-79
2021/07/16 07:02:49;;;;;;;19.80;7.43;;;18.30;99.90;;;;;;4159486;28;20116;-79
2021/07/16 07:04:49;;;;;;;29.40;9.55;;;18.30;99.90;;;;;;4159667;28;20037;-80
2021/07/16 07:06:51;;;;;;;24.13;8.68;;;18.30;99.90;;;;;;4165627;28;20057;-80
2021/07/16 07:08:51;;;;;;;31.50;8.57;;;18.40;99.90;;;;;;4163682;28;20447;-80
2021/07/16 07:10:52;;;;;;;21.80;6.65;;;18.40;99.90;;;;;;4164044;28;20029;-80
2021/07/16 07:12:53;;;;;;;18.00;7.53;;;18.50;99.90;;;;;;4163491;28;20442;-77
2021/07/16 07:14:53;;;;;;;22.17;7.13;;;18.50;99.90;;;;;;4143805;28;20042;-80
2021/07/16 07:16:54;;;;;;;20.63;6.82;;;18.50;99.90;;;;;;4162276;28;20032;-81
2021/07/16 07:18:55;;;;;;;26.88;6.82;;;18.50;99.90;;;;;;4173002;28;20087;-80
2021/07/16 07:20:55;;;;;;;19.35;6.82;;;18.50;99.90;;;;;;4158531;28;20033;-78
2021/07/16 07:22:56;;;;;;;17.15;7.45;;;18.40;99.90;;;;;;4163526;28;20052;-79
2021/07/16 07:24:57;;;;;;;22.38;7.38;;;18.30;99.90;;;;;;4155266;28;20030;-80
2021/07/16 07:26:58;;;;;;;24.77;6.97;;;18.10;99.90;;;;;;4163637;28;20094;-79
2021/07/16 07:28:59;;;;;;;21.88;7.30;;;18.00;99.90;;;;;;4167965;28;20480;-80
2021/07/16 07:31:00;;;;;;;22.80;7.60;;;17.90;99.90;;;;;;4161895;28;20028;-79
2021/07/16 07:33:00;;;;;;;19.92;6.95;;;17.90;99.90;;;;;;4164073;28;20485;-80
2021/07/16 07:35:01;;;;;;;30.15;8.13;;;17.80;99.90;;;;;;4171983;28;20359;-74
2021/07/16 07:37:02;;;;;;;19.45;8.13;;;17.80;99.90;;;;;;4158928;28;20477;-80
2021/07/16 07:39:03;;;;;;;24.08;7.85;;;17.80;99.90;;;;;;4155117;28;20033;-78
2021/07/16 07:41:05;;;;;;;28.10;7.70;;;17.90;99.90;;;;;;4164681;28;20033;-79
2021/07/16 07:43:05;;;;;;;23.42;7.30;;;17.80;99.90;;;;;;4153898;28;20062;-79
2021/07/16 07:45:07;;;;;;;29.25;9.43;;;17.80;99.90;;;;;;4154164;28;20034;-79
2021/07/16 07:47:08;;;;;;;23.60;7.85;;;17.80;99.90;;;;;;4154674;28;20056;-79
2021/07/16 07:49:10;;;;;;;24.52;8.00;;;17.80;99.90;;;;;;4155043;28;20042;-78
2021/07/16 07:51:11;;;;;;;31.13;7.55;;;17.70;99.90;;;;;;4154886;28;20026;-79
2021/07/16 07:53:12;;;;;;;20.40;8.35;;;17.60;99.90;;;;;;4163239;28;20393;-79
2021/07/16 07:55:14;;;;;;;18.85;8.10;;;17.50;99.90;;;;;;4162887;28;20021;-79
2021/07/16 07:57:14;;;;;;;22.92;8.63;;;17.40;99.90;;;;;;4163085;28;20471;-79
2021/07/16 07:59:15;;;;;;;23.23;8.10;;;17.20;99.90;;;;;;4167473;28;20029;-80
2021/07/16 08:01:16;;;;;;;33.63;9.40;;;17.10;99.90;;;;;;4163236;28;20117;-79
2021/07/16 08:03:16;;;;;;;32.50;9.20;;;16.90;99.90;;;;;;4155567;28;20033;-79
2021/07/16 08:05:17;;;;;;;29.45;9.88;;;16.90;99.90;;;;;;4159239;28;20384;-80
2021/07/16 08:07:18;;;;;;;25.77;9.27;;;16.80;99.90;;;;;;4170423;28;20036;-80
2021/07/16 08:09:18;;;;;;;30.20;10.18;;;16.70;99.90;;;;;;4175067;28;20124;-79
2021/07/16 08:11:19;;;;;;;26.17;9.65;;;16.60;99.90;;;;;;4165173;28;20555;-79
2021/07/16 08:13:20;;;;;;;24.60;10.18;;;16.50;99.90;;;;;;4163478;28;20063;-79
2021/07/16 08:15:21;;;;;;;26.05;9.02;;;16.40;99.90;;;;;;4168747;28;20038;-79
2021/07/16 08:17:22;;;;;;;37.35;11.55;;;16.50;99.90;;;;;;4166785;28;20121;-79
2021/07/16 08:19:23;;;;;;;36.38;10.48;;;16.60;99.90;;;;;;4157252;28;20079;-79
2021/07/16 08:21:24;;;;;;;32.67;10.18;;;16.70;99.90;;;;;;4163723;28;20060;-79
2021/07/16 08:23:25;;;;;;;24.73;9.35;;;16.90;99.90;;;;;;4152479;28;20104;-79
2021/07/16 08:25:25;;;;;;;31.95;11.35;;;17.00;99.90;;;;;;4155868;28;20033;-79
2021/07/16 08:27:26;;;;;;;21.55;9.93;;;17.10;99.90;;;;;;4152902;28;20103;-79
2021/07/16 08:29:27;;;;;;;28.25;10.07;;;17.10;99.90;;;;;;4163160;28;20021;-78
2021/07/16 08:31:28;;;;;;;26.25;9.23;;;17.10;99.90;;;;;;4162118;28;20034;-80
2021/07/16 08:33:29;;;;;;;34.40;9.85;;;17.20;99.90;;;;;;4163380;28;20501;-79
2021/07/16 08:35:29;;;;;;;22.42;9.05;;;17.10;99.90;;;;;;4162328;28;20052;-79
2021/07/16 08:37:30;;;;;;;26.23;10.15;;;17.10;99.90;;;;;;4165035;28;20030;-79
2021/07/16 08:39:31;;;;;;;24.83;8.82;;;17.20;99.90;;;;;;4158483;28;20054;-79
2021/07/16 08:41:33;;;;;;;31.77;9.75;;;17.20;99.90;;;;;;4152358;28;20037;-79
2021/07/16 08:43:35;;;;;;;22.73;9.85;;;17.20;99.90;;;;;;4171938;28;20080;-79
2021/07/16 08:45:36;;;;;;;23.77;8.75;;;17.30;99.90;;;;;;4165557;28;20025;-81
2021/07/16 08:47:38;;;;;;;30.67;10.07;;;17.30;99.90;;;;;;4154009;28;20401;-79
2021/07/16 08:49:40;;;;;;;21.63;9.33;;;17.40;99.90;;;;;;4156244;28;20042;-80
2021/07/16 08:51:41;;;;;;;20.30;8.70;;;17.40;99.90;;;;;;4161619;28;20816;-80
2021/07/16 08:53:42;;;;;;;31.33;11.10;;;17.60;99.90;;;;;;4166000;28;20072;-80
2021/07/16 08:55:43;;;;;;;22.67;10.18;;;17.70;99.90;;;;;;4160913;28;20026;-80
2021/07/16 08:57:44;;;;;;;26.60;10.90;;;17.80;99.90;;;;;;4158930;28;20033;-80
2021/07/16 08:59:44;;;;;;;28.80;8.68;;;18.00;99.90;;;;;;4156844;28;20096;-81
2021/07/16 09:01:46;;;;;;;28.45;9.43;;;18.10;99.90;;;;;;4157610;28;20088;-81
2021/07/16 09:04:01;;;;;;;23.13;9.43;;;18.10;99.90;;;;;;4172135;28;20041;-80
2021/07/16 09:06:01;;;;;;;23.48;8.80;;;18.20;99.90;;;;;;4177306;28;20043;-80
2021/07/16 09:08:04;;;;;;;32.92;10.05;;;18.20;99.90;;;;;;4167528;28;20112;-80
2021/07/16 09:10:07;;;;;;;28.10;8.40;;;18.30;99.90;;;;;;4175278;28;20026;-81
2021/07/16 09:12:11;;;;;;;32.53;9.32;;;18.20;99.90;;;;;;4142604;28;20449;-81
2021/07/16 09:14:31;;;;;;;28.02;9.90;;;18.10;99.90;;;;;;4149562;28;20026;-80
2021/07/16 09:16:32;;;;;;;30.15;9.63;;;18.00;99.90;;;;;;4157110;28;20029;-81
2021/07/16 09:18:32;;;;;;;32.13;10.30;;;18.10;99.90;;;;;;4165381;28;20465;-81
2021/07/16 09:20:33;;;;;;;31.25;8.98;;;18.10;99.90;;;;;;4158586;28;20030;-81
2021/07/16 09:22:35;;;;;;;35.42;9.55;;;18.00;99.90;;;;;;4163911;28;20072;-81
2021/07/16 09:24:42;;;;;;;26.13;9.43;;;18.00;99.90;;;;;;4194647;28;20025;-80
2021/07/16 09:26:43;;;;;;;28.15;9.70;;;18.00;99.90;;;;;;4183656;28;20033;-81
2021/07/16 09:28:46;;;;;;;30.42;9.27;;;18.10;99.90;;;;;;4172144;28;20044;-81
2021/07/16 09:30:46;;;;;;;25.98;8.13;;;18.20;99.90;;;;;;4179525;28;20562;-80
2021/07/16 09:32:50;;;;;;;22.63;8.23;;;18.30;99.90;;;;;;4175178;28;20041;-80
2021/07/16 09:34:51;;;;;;;25.10;8.15;;;18.60;99.90;;;;;;4161418;28;20034;-81
2021/07/16 09:36:53;;;;;;;29.20;8.10;;;18.70;99.90;;;;;;4162112;28;20501;-81
2021/07/16 09:38:56;;;;;;;18.65;8.00;;;18.80;99.90;;;;;;4180140;28;20029;-81
2021/07/16 09:41:05;;;;;;;29.05;9.38;;;18.80;99.90;;;;;;4163028;28;20607;-80
2021/07/16 09:43:09;;;;;;;28.65;8.00;;;18.70;99.90;;;;;;4164478;28;20037;-80
2021/07/16 09:45:13;;;;;;;26.45;8.25;;;18.70;99.90;;;;;;4167005;28;20083;-79
2021/07/16 09:47:16;;;;;;;25.08;8.00;;;18.70;99.90;;;;;;4177998;28;20029;-80
2021/07/16 09:49:17;;;;;;;29.38;8.48;;;18.70;99.90;;;;;;4162176;28;20160;-81
2021/07/16 09:51:27;;;;;;;26.77;8.23;;;18.70;99.90;;;;;;4164671;28;20022;-80
2021/07/16 09:53:29;;;;;;;18.27;7.47;;;18.70;99.90;;;;;;4169956;28;20116;-81
2021/07/16 09:55:30;;;;;;;25.40;8.68;;;18.80;99.90;;;;;;4163540;28;20033;-80
2021/07/16 09:57:46;;;;;;;24.38;9.32;;;18.80;99.90;;;;;;4168432;28;20063;-80
2021/07/16 09:59:47;;;;;;;25.63;8.65;;;18.90;99.90;;;;;;4173552;28;20120;-80
2021/07/16 10:01:49;;;;;;;24.60;7.75;;;18.80;99.90;;;;;;4174394;28;20071;-80
2021/07/16 10:03:50;;;;;;;24.38;8.02;;;18.80;99.90;;;;;;4193321;28;20033;-80
2021/07/16 10:05:52;;;;;;;26.20;8.38;;;18.90;99.90;;;;;;4184276;28;20041;-80
2021/07/16 10:07:52;;;;;;;25.88;7.97;;;19.00;99.90;;;;;;4169733;28;20064;-80
2021/07/16 10:09:54;;;;;;;21.30;7.40;;;19.00;99.90;;;;;;4170814;28;20033;-80
2021/07/16 10:11:56;;;;;;;18.15;6.60;;;19.20;99.90;;;;;;4171633;28;20171;-80
2021/07/16 10:13:58;;;;;;;19.63;7.75;;;19.40;99.90;;;;;;4156320;28;20117;-81
2021/07/16 10:16:02;;;;;;;19.92;7.65;;;19.70;99.90;;;;;;4166878;28;20495;-80
2021/07/16 10:18:04;;;;;;;;;;;19.90;99.90;;;;;;4160076;28;20038;-80
2021/07/16 10:20:09;;;;;;;32.00;7.25;;;19.90;99.90;;;;;;4163032;28;19941;-80
2021/07/16 10:22:09;;;;;;;25.80;6.85;;;20.00;99.90;;;;;;4153764;28;20389;-78
2021/07/16 10:24:12;;;;;;;23.30;7.68;;;20.00;99.90;;;;;;4159104;28;20029;-80
2021/07/16 10:26:13;;;;;;;;;;;20.00;99.90;;;;;;4162454;28;20036;-79
2021/07/16 10:28:41;;;;;;;25.95;7.10;;;20.00;99.90;;;;;;4162586;28;20357;-79